Time;durP1;ratioP1;P1;durP2;ratioP2;P2;SDS_P1;SDS_P2;PMS_P1;PMS_P2;Temp;Humidity;BMP_temperature;BMP_pressure;BME280_temperature;BME280_humidity;BME280_pressure;Samples;Min_cycle;Max_cycle;Signal;HPM_P1;HPM_P2
2023/07/08 05:37:33;;;;;;;7.82;2.75;;;20.70;99.90;;;;;;5297878;23;20085;-81
2023/07/08 05:40:02;;;;;;;4.38;2.30;;;20.70;99.90;;;;;;4840221;29;20093;-82
2023/07/08 05:42:29;;;;;;;6.70;2.05;;;20.70;99.90;;;;;;4844860;29;20050;-81
2023/07/08 05:44:56;;;;;;;3.72;2.08;;;20.60;99.90;;;;;;4851523;29;20058;-82
2023/07/08 05:47:23;;;;;;;6.03;2.03;;;20.60;99.90;;;;;;4848654;29;20508;-82
2023/07/08 05:49:49;;;;;;;4.70;2.55;;;20.50;99.90;;;;;;4833141;29;20132;-83
2023/07/08 05:52:16;;;;;;;2.90;1.55;;;20.50;99.90;;;;;;4853834;29;20064;-84
2023/07/08 05:54:43;;;;;;;5.18;1.90;;;20.40;99.90;;;;;;4856558;29;20056;-83
2023/07/08 05:57:11;;;;;;;3.22;1.80;;;20.40;99.90;;;;;;4853579;29;20411;-83
2023/07/08 05:59:43;;;;;;;6.20;1.88;;;20.30;99.90;;;;;;4853647;29;20114;-82
2023/07/08 06:02:12;;;;;;;3.97;1.60;;;20.20;99.90;;;;;;4850851;29;20056;-81
2023/07/08 06:04:40;;;;;;;5.18;1.80;;;20.20;99.90;;;;;;4850510;29;20064;-81
2023/07/08 06:07:06;;;;;;;3.25;1.20;;;20.20;99.90;;;;;;4850401;29;20049;-81
2023/07/08 06:09:34;;;;;;;2.45;1.08;;;20.20;99.90;;;;;;4851214;29;20049;-83
2023/07/08 06:12:01;;;;;;;2.33;1.30;;;20.20;99.90;;;;;;4851662;29;20054;-82
2023/07/08 06:14:28;;;;;;;3.55;1.17;;;20.30;99.90;;;;;;4851320;29;20064;-81
2023/07/08 06:16:55;;;;;;;2.75;1.38;;;20.30;99.90;;;;;;4851402;29;20498;-82
2023/07/08 06:19:22;;;;;;;4.32;1.52;;;20.40;99.90;;;;;;4832480;29;20051;-82
2023/07/08 06:21:49;;;;;;;2.10;1.10;;;20.40;99.90;;;;;;4851132;29;20058;-82
2023/07/08 06:24:15;;;;;;;2.15;1.33;;;20.40;99.90;;;;;;4834871;29;20127;-84
2023/07/08 06:26:42;;;;;;;1.67;1.23;;;20.50;99.90;;;;;;4850383;29;20110;-80
2023/07/08 06:29:09;;;;;;;2.05;1.05;;;20.60;99.90;;;;;;4850078;29;20081;-79
2023/07/08 06:31:36;;;;;;;5.10;1.30;;;20.60;99.90;;;;;;4834242;29;20114;-82
2023/07/08 06:34:03;;;;;;;1.70;1.00;;;20.70;99.90;;;;;;4850099;29;20050;-83
2023/07/08 06:36:31;;;;;;;1.98;0.77;;;20.80;99.90;;;;;;4850320;29;20058;-83
2023/07/08 06:38:58;;;;;;;2.65;1.27;;;20.90;99.90;;;;;;4831774;29;20200;-81
2023/07/08 06:41:25;;;;;;;2.28;1.90;;;20.90;99.90;;;;;;4850247;29;20062;-82
2023/07/08 06:43:52;;;;;;;3.88;2.30;;;21.00;99.90;;;;;;4850590;29;20064;-81
2023/07/08 06:46:19;;;;;;;2.10;1.60;;;21.10;99.90;;;;;;4850805;29;20062;-83
2023/07/08 06:48:46;;;;;;;3.13;1.52;;;21.20;99.90;;;;;;4851145;29;20064;-82
2023/07/08 06:51:13;;;;;;;1.73;0.90;;;21.20;99.90;;;;;;4850696;29;20076;-83
2023/07/08 06:53:40;;;;;;;1.58;0.80;;;21.30;99.90;;;;;;4826165;29;20119;-79
2023/07/08 06:56:06;;;;;;;2.53;1.02;;;21.30;99.90;;;;;;4883750;23;20641;-80
2023/07/08 06:58:33;;;;;;;2.33;1.05;;;21.30;99.90;;;;;;4832245;29;20499;-80
2023/07/08 07:01:00;;;;;;;1.58;1.10;;;21.30;99.90;;;;;;4823463;29;20089;-79
2023/07/08 07:03:27;;;;;;;2.25;1.00;;;21.40;99.90;;;;;;4839723;29;20058;-79
2023/07/08 07:05:54;;;;;;;1.25;0.80;;;21.50;99.90;;;;;;4836278;29;20061;-79
2023/07/08 07:08:21;;;;;;;3.10;1.02;;;21.50;99.90;;;;;;4835591;29;20058;-79
2023/07/08 07:10:48;;;;;;;0.70;0.70;;;21.60;99.90;;;;;;4835543;29;20063;-79
2023/07/08 07:13:15;;;;;;;1.35;0.60;;;21.60;99.90;;;;;;4830324;29;20046;-79
2023/07/08 07:15:42;;;;;;;2.58;0.88;;;21.70;99.90;;;;;;4836950;29;20261;-78
2023/07/08 07:18:09;;;;;;;0.90;0.80;;;21.90;99.90;;;;;;4840578;29;20598;-80
2023/07/08 07:20:37;;;;;;;0.85;0.63;;;21.90;99.90;;;;;;4836824;29;20065;-79
2023/07/08 07:23:04;;;;;;;1.85;1.13;;;22.00;99.90;;;;;;4836249;29;20112;-79
2023/07/08 07:25:31;;;;;;;1.58;0.60;;;22.10;99.90;;;;;;4836656;29;20066;-79
2023/07/08 07:27:58;;;;;;;1.70;0.95;;;22.20;99.90;;;;;;4828631;29;20451;-79
2023/07/08 07:30:25;;;;;;;2.17;0.82;;;22.30;99.90;;;;;;4837692;29;20464;-79
2023/07/08 07:32:52;;;;;;;1.65;0.90;;;22.40;99.90;;;;;;4838459;29;20051;-80
2023/07/08 07:35:19;;;;;;;3.08;1.00;;;22.50;99.90;;;;;;4834351;29;20483;-77
2023/07/08 07:37:45;;;;;;;3.05;1.20;;;22.60;99.90;;;;;;4833802;29;20054;-80
2023/07/08 07:40:15;;;;;;;1.60;1.00;;;22.70;99.90;;;;;;4836793;29;20580;-78
2023/07/08 07:42:44;;;;;;;2.35;1.00;;;22.80;99.90;;;;;;4831121;29;20485;-80
2023/07/08 07:45:11;;;;;;;2.28;1.10;;;22.90;99.90;;;;;;4840764;29;20115;-79
2023/07/08 07:47:38;;;;;;;2.67;1.20;;;23.00;99.90;;;;;;4840392;29;20119;-79
2023/07/08 07:50:07;;;;;;;1.85;1.10;;;23.10;99.90;;;;;;4843076;29;20092;-76
2023/07/08 07:52:35;;;;;;;2.53;0.93;;;23.20;99.90;;;;;;4833795;29;20053;-77
2023/07/08 07:55:03;;;;;;;1.90;1.30;;;23.20;99.90;;;;;;4836661;29;20046;-77
2023/07/08 07:57:30;;;;;;;1.45;1.10;;;23.30;99.90;;;;;;4842777;29;20054;-76
2023/07/08 07:59:56;;;;;;;2.60;1.60;;;23.40;99.90;;;;;;4836804;29;20113;-77
2023/07/08 08:02:23;;;;;;;3.33;1.20;;;23.50;99.90;;;;;;4840444;29;20114;-76
2023/07/08 08:04:50;;;;;;;2.05;1.23;;;23.60;99.90;;;;;;4835608;29;20055;-77
2023/07/08 08:07:17;;;;;;;4.13;1.35;;;23.70;99.90;;;;;;4832506;29;20465;-77
2023/07/08 08:09:44;;;;;;;4.50;1.10;;;23.90;99.90;;;;;;4841119;29;20081;-76
2023/07/08 08:12:11;;;;;;;1.52;0.82;;;24.00;99.90;;;;;;4838643;29;20076;-77
2023/07/08 08:14:39;;;;;;;1.38;1.02;;;24.10;99.90;;;;;;4838916;29;20496;-76
2023/07/08 08:17:06;;;;;;;4.40;1.00;;;24.20;99.90;;;;;;4841486;29;20776;-77
2023/07/08 08:19:33;;;;;;;1.45;0.80;;;24.30;99.90;;;;;;4838252;29;20066;-76
2023/07/08 08:22:00;;;;;;;2.20;1.20;;;24.40;99.90;;;;;;4836089;29;20504;-77
2023/07/08 08:24:26;;;;;;;1.40;0.93;;;24.50;99.90;;;;;;4847587;29;20584;-76
2023/07/08 08:26:54;;;;;;;1.00;0.85;;;24.60;99.90;;;;;;4832645;29;20053;-77
2023/07/08 08:29:21;;;;;;;2.75;1.88;;;24.80;99.90;;;;;;4835811;29;20575;-77
2023/07/08 08:31:48;;;;;;;4.05;1.23;;;24.90;99.90;;;;;;4825136;29;20523;-77
2023/07/08 08:34:14;;;;;;;1.95;1.00;;;25.00;99.90;;;;;;4836684;29;20057;-77
2023/07/08 08:36:42;;;;;;;1.10;0.95;;;25.20;99.90;;;;;;4836327;29;20062;-77
2023/07/08 08:39:09;;;;;;;3.75;1.40;;;25.30;99.90;;;;;;4836244;29;20058;-77
2023/07/08 08:41:38;;;;;;;2.22;1.38;;;25.30;99.90;;;;;;4831809;29;20459;-78
2023/07/08 08:44:06;;;;;;;4.18;1.52;;;25.40;99.90;;;;;;4849927;29;20059;-79
2023/07/08 08:46:51;;;;;;;1.20;0.93;;;25.60;99.90;;;;;;4837186;29;20060;-77
2023/07/08 08:49:21;;;;;;;4.38;1.20;;;25.70;99.90;;;;;;4835247;29;20515;-77
2023/07/08 08:51:50;;;;;;;1.75;1.13;;;25.70;99.90;;;;;;4827608;29;20092;-77
2023/07/08 08:54:16;;;;;;;1.60;1.10;;;25.80;99.90;;;;;;4848459;29;20105;-77
2023/07/08 08:56:56;;;;;;;2.10;1.40;;;25.90;99.90;;;;;;4837312;29;20046;-77
2023/07/08 08:59:33;;;;;;;2.47;0.95;;;25.90;99.90;;;;;;4837622;29;20527;-76
2023/07/08 09:02:01;;;;;;;2.65;1.40;;;26.00;99.90;;;;;;4842180;29;20073;-77
2023/07/08 09:04:35;;;;;;;1.52;1.17;;;26.10;99.90;;;;;;4845445;29;20058;-76
2023/07/08 09:07:12;;;;;;;2.28;1.23;;;26.10;99.90;;;;;;4841476;29;20088;-77
2023/07/08 09:09:47;;;;;;;3.00;1.65;;;26.20;99.90;;;;;;4835209;29;20078;-77
2023/07/08 09:12:25;;;;;;;2.22;1.20;;;26.20;99.90;;;;;;4830717;29;20098;-77
2023/07/08 09:14:51;;;;;;;1.52;1.30;;;26.20;99.90;;;;;;4842166;29;20556;-77
2023/07/08 09:17:32;;;;;;;2.20;1.38;;;26.30;99.90;;;;;;4836490;29;20106;-77
2023/07/08 09:20:03;;;;;;;1.67;1.10;;;26.30;99.90;;;;;;4829489;29;20058;-77
2023/07/08 09:22:42;;;;;;;3.55;1.38;;;26.30;99.90;;;;;;4829751;29;20053;-78
2023/07/08 09:25:20;;;;;;;2.83;1.42;;;26.40;99.90;;;;;;4839848;29;20485;-76
2023/07/08 09:27:47;;;;;;;3.38;1.25;;;26.40;99.90;;;;;;4843804;29;20054;-77
2023/07/08 09:30:23;;;;;;;3.55;1.23;;;26.50;99.90;;;;;;4851596;29;20106;-77
2023/07/08 09:32:50;;;;;;;3.88;1.05;;;26.50;99.90;;;;;;4835916;29;20118;-76
2023/07/08 09:35:23;;;;;;;1.92;1.00;;;26.50;99.90;;;;;;4837465;29;20054;-77
2023/07/08 09:37:50;;;;;;;2.70;1.02;;;26.60;99.90;;;;;;4831370;29;20138;-76
2023/07/08 09:40:17;;;;;;;2.33;1.40;;;26.70;99.90;;;;;;4840257;29;20054;-77
2023/07/08 09:42:48;;;;;;;2.00;0.85;;;26.80;99.90;;;;;;4841338;29;20053;-77
2023/07/08 09:45:24;;;;;;;3.28;0.98;;;26.90;99.90;;;;;;4835811;29;20318;-76
2023/07/08 09:47:55;;;;;;;2.08;1.33;;;27.00;99.90;;;;;;4838141;29;20051;-76
2023/07/08 09:50:28;;;;;;;5.35;2.05;;;27.00;99.90;;;;;;4834031;29;20058;-76
2023/07/08 09:52:57;;;;;;;3.72;1.33;;;27.00;99.90;;;;;;4834678;29;20050;-75
2023/07/08 09:55:25;;;;;;;2.45;1.25;;;27.00;99.90;;;;;;4840498;29;20078;-77
2023/07/08 09:57:53;;;;;;;1.63;1.02;;;27.00;99.90;;;;;;4838667;29;20535;-79
2023/07/08 10:00:33;;;;;;;1.52;1.17;;;26.90;99.90;;;;;;4819246;29;20054;-76
2023/07/08 10:03:21;;;;;;;2.33;1.10;;;26.80;99.90;;;;;;4836455;29;20105;-76
2023/07/08 10:05:50;;;;;;;1.25;1.15;;;26.80;99.90;;;;;;4813926;29;20094;-76
2023/07/08 10:08:22;;;;;;;1.48;0.90;;;26.80;99.90;;;;;;4833930;29;20053;-77
2023/07/08 10:11:09;;;;;;;3.58;1.20;;;26.80;99.90;;;;;;4835913;29;20054;-76
2023/07/08 10:13:42;;;;;;;1.70;1.25;;;26.90;99.90;;;;;;4837102;29;20061;-76
2023/07/08 10:16:13;;;;;;;2.33;1.23;;;27.00;99.90;;;;;;4836119;29;20047;-76
2023/07/08 10:18:40;;;;;;;1.58;0.90;;;27.10;99.90;;;;;;4835622;29;20066;-77
2023/07/08 10:21:18;;;;;;;1.50;1.00;;;27.20;99.90;;;;;;4840744;29;20531;-77
2023/07/08 10:23:55;;;;;;;3.95;0.90;;;27.30;99.90;;;;;;4837474;29;20138;-76
2023/07/08 10:26:34;;;;;;;1.98;1.10;;;27.30;99.90;;;;;;4838905;29;20484;-77
2023/07/08 10:29:04;;;;;;;1.52;1.02;;;27.40;99.90;;;;;;4836157;29;20057;-78
2023/07/08 10:31:46;;;;;;;2.50;1.00;;;27.40;99.90;;;;;;4836788;29;20097;-77
2023/07/08 10:34:42;;;;;;;2.60;1.27;;;27.40;99.90;;;;;;4832650;29;20053;-77
2023/07/08 10:37:25;;;;;;;2.28;1.25;;;27.50;99.90;;;;;;4837377;29;20103;-77
2023/07/08 10:40:02;;;;;;;1.60;1.10;;;27.60;99.90;;;;;;4836307;29;20054;-75
2023/07/08 10:43:03;;;;;;;2.97;1.00;;;27.60;99.90;;;;;;4837275;29;20429;-77
2023/07/08 10:45:44;;;;;;;1.70;1.00;;;27.80;99.90;;;;;;4853897;29;20111;-78
2023/07/08 10:48:25;;;;;;;3.45;1.88;;;27.80;99.90;;;;;;4844049;29;20053;-79
2023/07/08 10:51:04;;;;;;;3.58;1.25;;;27.90;99.90;;;;;;4846392;29;20061;-80
2023/07/08 10:53:44;;;;;;;2.22;1.13;;;28.00;99.90;;;;;;4850642;29;20116;-79
2023/07/08 10:56:20;;;;;;;;;;;28.00;99.90;;;;;;4848570;29;20049;-79
2023/07/08 10:59:01;;;;;;;2.10;1.17;;;28.00;99.90;;;;;;4840857;29;19928;-81
2023/07/08 11:01:54;;;;;;;2.15;1.20;;;28.00;99.90;;;;;;4838026;29;20050;-81
2023/07/08 11:04:50;;;;;;;2.65;1.13;;;28.10;99.90;;;;;;4841568;29;20054;-81
2023/07/08 11:07:36;;;;;;;3.35;1.60;;;28.20;99.90;;;;;;4830415;29;20054;-82
2023/07/08 11:10:29;;;;;;;4.00;1.30;;;28.20;99.90;;;;;;4838443;29;20153;-79
2023/07/08 11:13:03;;;;;;;3.42;1.08;;;28.30;99.90;;;;;;4852425;29;20432;-79
2023/07/08 11:15:52;;;;;;;2.60;1.33;;;28.30;99.90;;;;;;4832893;29;20046;-79
2023/07/08 11:18:26;;;;;;;2.97;2.08;;;28.30;99.90;;;;;;4838111;29;20058;-81
2023/07/08 11:21:00;;;;;;;2.92;1.67;;;28.40;99.90;;;;;;4832449;29;20564;-80
2023/07/08 11:23:36;;;;;;;2.42;1.55;;;28.40;99.90;;;;;;4835553;29;20064;-80
2023/07/08 11:26:22;;;;;;;3.60;1.50;;;28.40;99.90;;;;;;4853255;29;20050;-78
2023/07/08 11:28:51;;;;;;;6.28;1.80;;;28.50;99.90;;;;;;4835968;29;20054;-79
2023/07/08 11:31:18;;;;;;;4.50;2.88;;;28.50;99.90;;;;;;4833328;29;20137;-79
2023/07/08 11:33:46;;;;;;;4.97;3.50;;;28.70;99.90;;;;;;4836371;29;20054;-79
2023/07/08 11:36:14;;;;;;;6.63;3.70;;;28.80;99.90;;;;;;4831458;29;20050;-80
2023/07/08 11:38:54;;;;;;;7.90;5.82;;;28.90;99.90;;;;;;4835609;29;20062;-80
2023/07/08 11:41:25;;;;;;;3.17;2.17;;;28.90;99.90;;;;;;4853254;29;20065;-80
2023/07/08 11:43:56;;;;;;;16.15;11.40;;;29.00;99.90;;;;;;4832454;29;20137;-80
2023/07/08 11:46:30;;;;;;;16.20;10.40;;;29.00;99.90;;;;;;4831114;29;20083;-79
2023/07/08 11:49:04;;;;;;;11.30;7.45;;;28.90;99.90;;;;;;4833848;29;20054;-79
2023/07/08 11:51:37;;;;;;;6.85;4.18;;;28.90;99.90;;;;;;4836717;29;20071;-80
2023/07/08 11:54:04;;;;;;;5.68;4.50;;;28.90;99.90;;;;;;4850699;29;20054;-80
2023/07/08 11:57:17;;;;;;;6.57;4.15;;;28.80;99.90;;;;;;4836569;29;20050;-80
2023/07/08 11:59:45;;;;;;;2.15;1.65;;;28.70;99.90;;;;;;4796420;29;20098;-80
2023/07/08 12:02:17;;;;;;;4.15;1.67;;;28.70;99.90;;;;;;4790691;29;20459;-79
2023/07/08 12:05:22;;;;;;;4.03;1.52;;;28.60;99.90;;;;;;4817974;29;20057;-79
2023/07/08 12:08:01;;;;;;;2.42;1.40;;;28.50;99.90;;;;;;4835871;29;20054;-78
2023/07/08 12:10:35;;;;;;;3.58;1.73;;;28.50;99.90;;;;;;4836552;29;20473;-78
2023/07/08 12:13:02;;;;;;;2.00;1.40;;;28.40;99.90;;;;;;4834949;29;20504;-79
2023/07/08 12:15:31;;;;;;;2.75;1.48;;;28.30;99.90;;;;;;4830893;29;20058;-79
2023/07/08 12:18:16;;;;;;;3.15;1.42;;;28.20;99.90;;;;;;4835591;29;20115;-79
2023/07/08 12:20:47;;;;;;;3.83;1.40;;;28.20;99.90;;;;;;4834340;29;20050;-79
2023/07/08 12:23:23;;;;;;;1.77;1.23;;;28.10;99.90;;;;;;4849651;29;20504;-79
2023/07/08 12:25:51;;;;;;;3.60;1.60;;;28.00;99.90;;;;;;4834373;29;20119;-79
2023/07/08 12:28:20;;;;;;;4.47;2.05;;;28.00;99.90;;;;;;4835335;29;20058;-78
2023/07/08 12:30:48;;;;;;;4.33;1.70;;;28.00;99.90;;;;;;4829262;29;20054;-79
2023/07/08 12:33:30;;;;;;;4.85;1.73;;;28.00;99.90;;;;;;4821789;29;20750;-79
2023/07/08 12:35:59;;;;;;;3.85;1.48;;;28.00;99.90;;;;;;4838816;29;20061;-78
2023/07/08 12:38:33;;;;;;;6.20;2.25;;;28.00;99.90;;;;;;4835080;29;20137;-79
2023/07/08 12:41:05;;;;;;;3.67;1.45;;;28.00;99.90;;;;;;4834899;29;20050;-78
2023/07/08 12:43:31;;;;;;;6.90;2.75;;;27.90;99.90;;;;;;4834930;29;20094;-78
2023/07/08 12:45:59;;;;;;;2.53;1.65;;;27.90;99.90;;;;;;4828888;29;20082;-78
2023/07/08 12:48:30;;;;;;;2.72;2.10;;;27.90;99.90;;;;;;4837333;29;20133;-79
2023/07/08 12:50:57;;;;;;;4.55;1.50;;;27.90;99.90;;;;;;4839316;29;20149;-79
2023/07/08 12:53:25;;;;;;;6.68;1.60;;;27.80;99.90;;;;;;4832999;29;20061;-80
2023/07/08 12:55:55;;;;;;;2.55;1.60;;;27.80;99.90;;;;;;4833579;29;20110;-80
2023/07/08 12:58:27;;;;;;;;;;;27.80;99.90;;;;;;4852210;29;20054;-78
2023/07/08 13:00:56;;;;;;;4.60;2.40;;;27.80;99.90;;;;;;4829701;29;19932;-79
2023/07/08 13:03:27;;;;;;;2.25;1.60;;;27.70;99.90;;;;;;4853045;29;20516;-80
2023/07/08 13:05:55;;;;;;;2.17;1.52;;;27.80;99.90;;;;;;4838093;29;20431;-77
2023/07/08 13:08:25;;;;;;;6.45;2.03;;;27.80;99.90;;;;;;4835858;29;20118;-78
2023/07/08 13:10:56;;;;;;;3.55;2.08;;;27.80;99.90;;;;;;4836387;29;20057;-79
2023/07/08 13:13:37;;;;;;;5.50;2.42;;;27.70;99.90;;;;;;4837094;29;20050;-80
2023/07/08 13:16:04;;;;;;;4.03;2.20;;;27.70;99.90;;;;;;4827929;29;20046;-80
2023/07/08 13:18:34;;;;;;;3.95;1.67;;;27.70;99.90;;;;;;4837988;29;20048;-79
2023/07/08 13:21:02;;;;;;;;;;;27.70;99.90;;;;;;4840237;29;20045;-80
2023/07/08 13:23:30;;;;;;;4.60;2.08;;;27.70;99.90;;;;;;4846627;29;19960;-80
2023/07/08 13:25:57;;;;;;;6.40;2.47;;;27.70;99.90;;;;;;4832814;29;20504;-79
2023/07/08 13:28:27;;;;;;;4.80;2.35;;;27.70;99.90;;;;;;4834595;29;20054;-80
2023/07/08 13:31:00;;;;;;;5.30;2.55;;;27.70;99.90;;;;;;4826799;29;20050;-80
2023/07/08 13:33:33;;;;;;;3.28;2.10;;;27.70;99.90;;;;;;4819782;29;20042;-79
2023/07/08 13:36:05;;;;;;;2.75;2.00;;;27.70;99.90;;;;;;4839295;29;20050;-79
2023/07/08 13:38:34;;;;;;;4.88;2.13;;;27.80;99.90;;;;;;4832728;29;20098;-80
2023/07/08 13:41:04;;;;;;;4.35;1.80;;;27.70;99.90;;;;;;4832017;29;20056;-79
2023/07/08 13:43:33;;;;;;;6.03;2.45;;;27.80;99.90;;;;;;4817483;29;20453;-79
2023/07/08 13:46:00;;;;;;;6.15;2.38;;;27.70;99.90;;;;;;4827472;29;20512;-80
2023/07/08 13:48:36;;;;;;;2.45;2.03;;;27.80;99.90;;;;;;4819155;29;20058;-79
2023/07/08 13:51:20;;;;;;;4.20;2.63;;;27.80;99.90;;;;;;4838835;29;20557;-79
2023/07/08 13:53:54;;;;;;;3.25;2.15;;;27.80;99.90;;;;;;4834305;29;20106;-79
2023/07/08 13:56:25;;;;;;;6.25;2.20;;;27.80;99.90;;;;;;4833315;29;20062;-80
2023/07/08 13:59:00;;;;;;;3.85;2.45;;;27.80;99.90;;;;;;4830267;29;20508;-80
2023/07/08 14:01:29;;;;;;;7.68;2.50;;;27.80;99.90;;;;;;4829105;29;20081;-79
2023/07/08 14:03:57;;;;;;;3.45;1.92;;;27.80;99.90;;;;;;4835826;29;20508;-79
2023/07/08 14:06:25;;;;;;;4.43;2.83;;;27.90;99.90;;;;;;4852449;29;20054;-80
2023/07/08 14:08:56;;;;;;;5.03;2.60;;;27.90;99.90;;;;;;4830338;29;20054;-79
2023/07/08 14:11:23;;;;;;;4.22;2.75;;;27.90;99.90;;;;;;4834320;29;20049;-80
2023/07/08 14:13:50;;;;;;;2.60;1.80;;;27.90;99.90;;;;;;4835323;29;20042;-79
2023/07/08 14:16:30;;;;;;;6.97;2.80;;;27.90;99.90;;;;;;4831710;29;20125;-79
2023/07/08 14:18:58;;;;;;;4.88;2.90;;;27.90;99.90;;;;;;4838736;29;20050;-80
2023/07/08 14:21:25;;;;;;;5.05;2.63;;;28.00;99.90;;;;;;4840453;29;20427;-79
2023/07/08 14:23:51;;;;;;;4.45;3.00;;;28.00;99.90;;;;;;4832865;29;20085;-79
2023/07/08 14:26:18;;;;;;;3.95;2.28;;;28.00;99.90;;;;;;4835691;29;20082;-80
2023/07/08 14:28:45;;;;;;;7.20;3.17;;;28.00;99.90;;;;;;4835894;29;20141;-80
2023/07/08 14:31:16;;;;;;;3.90;2.50;;;28.00;99.90;;;;;;4834359;29;20095;-79
2023/07/08 14:33:43;;;;;;;5.82;3.35;;;28.10;99.90;;;;;;4820684;29;20042;-78
2023/07/08 14:36:11;;;;;;;6.25;2.40;;;28.10;99.90;;;;;;4836950;29;20086;-79
2023/07/08 14:38:38;;;;;;;4.88;2.25;;;28.20;99.90;;;;;;4831860;29;20141;-80
2023/07/08 14:41:05;;;;;;;5.75;2.70;;;28.10;99.90;;;;;;4836100;29;20427;-79
2023/07/08 14:43:33;;;;;;;5.85;2.55;;;28.20;99.90;;;;;;4836914;29;20060;-79
2023/07/08 14:46:03;;;;;;;4.35;2.67;;;28.20;99.90;;;;;;4833608;29;20054;-79
2023/07/08 14:48:31;;;;;;;4.03;2.28;;;28.20;99.90;;;;;;4836044;29;20046;-80
2023/07/08 14:50:58;;;;;;;6.55;2.33;;;28.20;99.90;;;;;;4838239;29;20050;-80
2023/07/08 14:53:26;;;;;;;4.72;2.33;;;28.20;99.90;;;;;;4832652;29;20046;-80
2023/07/08 14:55:55;;;;;;;6.10;2.45;;;28.20;99.90;;;;;;4834820;29;20047;-78
2023/07/08 14:58:33;;;;;;;5.70;2.67;;;28.30;99.90;;;;;;4836134;29;20058;-79
2023/07/08 15:01:07;;;;;;;3.28;2.40;;;28.20;99.90;;;;;;4839744;29;20046;-80
2023/07/08 15:03:34;;;;;;;3.92;2.50;;;28.30;99.90;;;;;;4834654;29;20132;-79
2023/07/08 15:06:01;;;;;;;3.30;2.38;;;28.30;99.90;;;;;;4821155;29;20050;-79
2023/07/08 15:08:27;;;;;;;5.53;2.20;;;28.30;99.90;;;;;;4833000;29;20056;-80
2023/07/08 15:10:54;;;;;;;4.35;2.72;;;28.40;99.90;;;;;;4834532;29;20125;-79
2023/07/08 15:13:25;;;;;;;5.60;2.80;;;28.40;99.90;;;;;;4836250;29;20111;-79
2023/07/08 15:15:53;;;;;;;4.60;2.50;;;28.40;99.90;;;;;;4822580;29;20046;-79
2023/07/08 15:18:20;;;;;;;5.03;2.33;;;28.40;99.90;;;;;;4836026;29;20420;-80
2023/07/08 15:20:47;;;;;;;5.72;2.50;;;28.40;99.90;;;;;;4836796;29;20050;-80
2023/07/08 15:23:13;;;;;;;5.03;3.10;;;28.40;99.90;;;;;;4833187;29;20050;-80
2023/07/08 15:25:43;;;;;;;4.47;3.15;;;28.40;99.90;;;;;;4831554;29;20086;-78
2023/07/08 15:28:50;;;;;;;8.98;4.15;;;28.40;99.90;;;;;;4850520;29;20576;-79
2023/07/08 15:31:20;;;;;;;6.88;2.95;;;28.40;99.90;;;;;;4838733;29;20054;-80
2023/07/08 15:33:47;;;;;;;8.77;2.85;;;28.40;99.90;;;;;;4835692;29;20528;-80
2023/07/08 15:36:14;;;;;;;4.90;2.35;;;28.40;99.90;;;;;;4837258;29;20050;-80
2023/07/08 15:38:41;;;;;;;8.15;2.90;;;28.40;99.90;;;;;;4831983;29;20051;-79
2023/07/08 15:41:21;;;;;;;4.60;2.58;;;28.40;99.90;;;;;;4848853;29;20053;-80
2023/07/08 15:43:49;;;;;;;3.40;2.40;;;28.50;99.90;;;;;;4836631;29;20110;-79
2023/07/08 15:46:17;;;;;;;5.25;2.97;;;28.50;99.90;;;;;;4838817;29;20097;-79
2023/07/08 15:48:43;;;;;;;5.45;2.83;;;28.50;99.90;;;;;;4834472;29;20129;-79
2023/07/08 15:51:18;;;;;;;8.25;3.22;;;28.50;99.90;;;;;;4836449;29;20099;-80
2023/07/08 15:53:45;;;;;;;5.85;3.03;;;28.50;99.90;;;;;;4835040;29;20046;-79
2023/07/08 15:56:15;;;;;;;7.63;2.60;;;28.50;99.90;;;;;;4830982;29;20141;-80
2023/07/08 15:58:44;;;;;;;5.35;2.55;;;28.50;99.90;;;;;;4838190;29;20102;-80
2023/07/08 16:01:21;;;;;;;5.03;2.47;;;28.50;99.90;;;;;;4840453;29;20050;-79
2023/07/08 16:03:49;;;;;;;3.72;2.42;;;28.50;99.90;;;;;;4834830;29;20054;-80
2023/07/08 16:06:16;;;;;;;9.35;2.92;;;28.50;99.90;;;;;;4837894;29;20453;-79
2023/07/08 16:08:44;;;;;;;7.55;3.00;;;28.60;99.90;;;;;;4836004;29;20050;-78
2023/07/08 16:11:27;;;;;;;4.53;2.75;;;28.60;99.90;;;;;;4836253;29;20073;-79
2023/07/08 16:13:54;;;;;;;3.88;2.60;;;28.60;99.90;;;;;;4839004;29;20106;-79
2023/07/08 16:16:22;;;;;;;4.70;2.60;;;28.60;99.90;;;;;;4839311;29;20516;-79
2023/07/08 16:18:49;;;;;;;2.90;2.00;;;28.60;99.90;;;;;;4836227;29;20046;-79
2023/07/08 16:21:16;;;;;;;3.88;2.60;;;28.60;99.90;;;;;;4822200;29;20127;-79
2023/07/08 16:23:43;;;;;;;4.05;2.70;;;28.60;99.90;;;;;;4836885;29;20042;-79
2023/07/08 16:26:13;;;;;;;6.38;3.42;;;28.60;99.90;;;;;;4835200;29;20050;-79
2023/07/08 16:28:45;;;;;;;7.55;3.55;;;28.60;99.90;;;;;;4823631;29;20082;-79
2023/07/08 16:31:16;;;;;;;7.50;3.08;;;28.60;99.90;;;;;;4853343;29;20073;-79
2023/07/08 16:33:44;;;;;;;3.65;2.40;;;28.60;99.90;;;;;;4835973;29;20046;-78
2023/07/08 16:36:17;;;;;;;5.20;2.42;;;28.60;99.90;;;;;;4853252;29;20046;-79
2023/07/08 16:38:45;;;;;;;5.13;2.38;;;28.70;99.90;;;;;;4832784;29;20042;-78
2023/07/08 16:41:16;;;;;;;5.60;2.17;;;28.70;99.90;;;;;;4837769;29;20473;-78
2023/07/08 16:43:43;;;;;;;4.15;2.03;;;28.70;99.90;;;;;;4841532;29;20050;-78
2023/07/08 16:46:11;;;;;;;5.40;2.75;;;28.70;99.90;;;;;;4836988;29;20099;-78
2023/07/08 16:48:38;;;;;;;5.18;2.67;;;28.70;99.90;;;;;;4837193;29;20046;-78
2023/07/08 16:51:17;;;;;;;4.72;2.70;;;28.70;99.90;;;;;;4839632;29;20085;-79
2023/07/08 16:53:44;;;;;;;3.90;2.35;;;28.70;99.90;;;;;;4838815;29;20050;-79
2023/07/08 16:56:12;;;;;;;3.47;2.30;;;28.70;99.90;;;;;;4838229;29;20055;-79
2023/07/08 16:58:39;;;;;;;9.02;3.00;;;28.70;99.90;;;;;;4822938;29;20050;-78
2023/07/08 17:01:18;;;;;;;6.60;2.45;;;28.70;99.90;;;;;;4835222;29;20129;-78
2023/07/08 17:03:45;;;;;;;6.88;2.42;;;28.70;99.90;;;;;;4832541;29;20081;-79
2023/07/08 17:06:13;;;;;;;4.82;2.38;;;28.70;99.90;;;;;;4838796;29;20045;-78
2023/07/08 17:08:40;;;;;;;4.15;2.60;;;28.70;99.90;;;;;;4831510;29;20140;-79
2023/07/08 17:11:07;;;;;;;4.22;2.38;;;28.70;99.90;;;;;;4834220;29;20234;-79
2023/07/08 17:13:33;;;;;;;5.10;2.60;;;28.70;99.90;;;;;;4839328;29;20094;-79
2023/07/08 17:16:00;;;;;;;5.15;2.97;;;28.70;99.90;;;;;;4836299;29;20077;-79
2023/07/08 17:18:28;;;;;;;7.15;2.60;;;28.70;99.90;;;;;;4832581;29;20109;-79
2023/07/08 17:21:00;;;;;;;5.97;2.65;;;28.70;99.90;;;;;;4837416;29;20058;-78
2023/07/08 17:23:27;;;;;;;7.15;2.53;;;28.70;99.90;;;;;;4832299;29;20058;-79
2023/07/08 17:25:54;;;;;;;6.63;2.85;;;28.70;99.90;;;;;;4834396;29;20081;-77
2023/07/08 17:28:21;;;;;;;5.50;2.53;;;28.70;99.90;;;;;;4838283;29;20054;-79
2023/07/08 17:30:51;;;;;;;7.75;2.63;;;28.70;99.90;;;;;;4837042;29;20053;-79
2023/07/08 17:33:19;;;;;;;;;;;28.70;99.90;;;;;;4832734;29;20096;-78
2023/07/08 17:35:48;;;;;;;5.45;2.42;;;28.70;99.90;;;;;;4837377;29;19932;-79
2023/07/08 17:38:21;;;;;;;4.80;2.55;;;28.60;99.90;;;;;;4832891;29;20050;-79
2023/07/08 17:40:48;;;;;;;4.20;2.40;;;28.60;99.90;;;;;;4840512;29;20050;-78
2023/07/08 17:43:15;;;;;;;6.53;2.40;;;28.60;99.90;;;;;;4837125;29;20046;-79
2023/07/08 17:45:45;;;;;;;4.00;2.45;;;28.60;99.90;;;;;;4821883;29;20074;-78
2023/07/08 17:48:24;;;;;;;5.03;2.58;;;28.60;99.90;;;;;;4835610;29;20074;-79
2023/07/08 17:50:52;;;;;;;4.90;2.40;;;28.60;99.90;;;;;;4842638;29;20046;-79
2023/07/08 17:53:19;;;;;;;5.47;3.00;;;28.50;99.90;;;;;;4840508;29;20302;-78
2023/07/08 17:55:50;;;;;;;6.40;3.15;;;28.50;99.90;;;;;;4846730;29;20106;-79
2023/07/08 17:58:17;;;;;;;5.18;2.80;;;28.50;99.90;;;;;;4843263;29;20049;-78
2023/07/08 18:00:47;;;;;;;5.30;2.80;;;28.40;99.90;;;;;;4843560;29;20050;-79
2023/07/08 18:03:17;;;;;;;5.47;2.95;;;28.40;99.90;;;;;;4840380;29;20073;-79
2023/07/08 18:05:44;;;;;;;5.85;2.42;;;28.40;99.90;;;;;;4841386;29;20125;-79
2023/07/08 18:08:11;;;;;;;5.63;2.70;;;28.30;99.90;;;;;;4843353;29;20512;-79
2023/07/08 18:10:38;;;;;;;5.20;2.67;;;28.30;99.90;;;;;;4845659;29;20052;-79
2023/07/08 18:13:17;;;;;;;7.22;2.90;;;28.20;99.90;;;;;;4839684;29;20153;-79
2023/07/08 18:15:43;;;;;;;6.85;3.10;;;28.20;99.90;;;;;;4840503;29;20061;-78
2023/07/08 18:18:12;;;;;;;5.22;2.50;;;28.10;99.90;;;;;;4835407;29;20444;-78
2023/07/08 18:20:43;;;;;;;5.80;2.90;;;28.10;99.90;;;;;;4840972;29;20106;-79
2023/07/08 18:23:17;;;;;;;4.78;2.83;;;28.10;99.90;;;;;;4842725;29;20389;-79
2023/07/08 18:25:44;;;;;;;7.07;3.13;;;28.00;99.90;;;;;;4842577;29;20058;-79
2023/07/08 18:28:13;;;;;;;6.03;2.97;;;28.00;99.90;;;;;;4838464;29;20142;-79
2023/07/08 18:30:41;;;;;;;5.00;2.83;;;27.90;99.90;;;;;;4841332;29;20071;-78
2023/07/08 18:33:14;;;;;;;7.82;3.13;;;27.90;99.90;;;;;;4832761;29;20465;-78
2023/07/08 18:35:42;;;;;;;6.80;2.90;;;27.80;99.90;;;;;;4843024;29;20093;-77
2023/07/08 18:38:09;;;;;;;7.75;2.90;;;27.80;99.90;;;;;;4844511;29;20061;-78
2023/07/08 18:40:41;;;;;;;5.47;2.75;;;27.70;99.90;;;;;;4826462;29;20046;-79
2023/07/08 18:43:29;;;;;;;8.60;3.92;;;27.70;99.90;;;;;;4838625;29;20085;-79